aviador You're here:

LEMG Decoded Metar

MALAGA in SPAIN
Report Time2017-08-18 04:30:00
UTC Time2017-08-18 04:45:06
Flight Rules vfr VFR
Wind300° at 04 kt
W.Decomp.*RWY 31: 4.0 kt HW 0.6 kt LCW
RWY 30: 4.0 kt HW 0.1 kt RCW
W.Rank300° ranks 2
Current wind is below 300° avg. (6.9)
Visibility9999 m
Phenomena:N/A
Clouds:N/A
Expected CloudBase > 800 ft AGL from Temp-Dew spread
CeilingNone
Temp22°C (ISA +7)
Dew Point20°C (88% RH)
QNH1016 hPa
Density Alt1,050 ft
Elevation23 ft
Report Wrong Elevation
Raw Report
LEMG 180430Z 30004KT CAVOK 22/20 Q1016 NOSIG=

Extra information for LEMG:More info

Metar Taf Metar & Taf Last 4 Metars F.Rules Stats Wind Profile Meteogram Temp Stats Airport Information Weather charts Add Link Nearby VenuesMetar ALERT Operation Metar Decoded Social comments